• Join FlightAware (Why Join?)
  • Login
  • US Flag 
09:18AM EDT


 

Airport Tracker/Info


-or-


 

Live Flight TrackerFlight Track Log ✈ N43HP ✈ 19-Aug-2014 ✈ KOPF - KORL

Flight Track Log - Related Links

Times and Time Zones

All times are in EDT time to prevent confusion due to time zone crossing. See the N43HP flight status page for this flight to view local times or setup timezone preferences in your user account.

Time Position Orientation Groundspeed Altitude Reporting Facility
EDT Latitude Longitude Course Direction KTS MPH feet Rate Location/Type
06:37PM 25.9125 -80.2692 352° North 104 120 300  Level Miami Center
06:38PM 25.9414 -80.2739 352° North 141 162 1,200 840 Climbing Miami Center
06:39PM 25.9647 -80.2886 330° Northwest 136 157 1,900 780 Climbing Miami Center
06:39PM 25.9714 -80.2969 312° West 127 146 2,000 720 Climbing Miami Center
06:40PM 25.9811 -80.3236 292° West 135 155 2,700 840 Climbing Miami Center
06:40PM 25.9856 -80.3375 290° West 132 152 2,900 660 Climbing Miami Center
06:41PM 25.9983 -80.3592 303° West 135 155 3,400 660 Climbing Miami Center
06:41PM 26.0108 -80.3694 324° Northwest 134 154 3,700 840 Climbing Miami Center
06:42PM 26.0250 -80.3839 318° Northwest 128 147 4,300 960 Climbing Miami Center
06:42PM 26.0322 -80.3944 307° West 121 139 4,600 1,080 Climbing Miami Center
06:43PM 26.0553 -80.4122 325° Northwest 124 143 5,400 840 Climbing Miami Center
06:44PM 26.0883 -80.4178 351° North 122 140 6,200 720 Climbing Miami Center
06:44PM 26.0956 -80.4203 343° North 120 138 6,300 780 Climbing Miami Center
06:45PM 26.1206 -80.4242 352° North 119 137 7,000 660 Climbing Miami Center
06:45PM 26.1286 -80.4275 340° North 119 137 7,000 540 Level Miami Center
06:46PM 26.1542 -80.4339 347° North 122 140 7,600 660 Climbing Miami Center
06:47PM 26.1875 -80.4464 341° North 125 144 8,300 480 Climbing Miami Center
06:48PM 26.2233 -80.4594 342° North 130 150 8,600 120 Climbing Miami Center
06:49PM 26.2725 -80.4764 343° North 167 192 8,600  Level Miami Center
06:50PM 26.3231 -80.4947 342° North 177 204 8,600  Level Miami Center
06:51PM 26.3706 -80.5136 340° North 179 206 8,600  Level Miami Center
06:52PM 26.4178 -80.5314 341° North 179 206 8,600  Level Miami Center
06:53PM 26.4686 -80.5506 341° North 178 205 8,600 -60 Level Miami Center
06:54PM 26.5164 -80.5692 341° North 179 206 8,500 -60 Descending Miami Center
06:55PM 26.5633 -80.5869 341° North 179 206 8,500  Level Miami Center
06:56PM 26.6144 -80.6061 341° North 179 206 8,500  Level Miami Center
06:57PM 26.6622 -80.6236 342° North 181 208 8,500  Level Miami Center
06:58PM 26.7089 -80.6425 340° North 180 207 8,500  Level Miami Center
06:59PM 26.7597 -80.6622 341° North 178 205 8,500  Level Miami Center
07:00PM 26.8078 -80.6806 341° North 181 208 8,500  Level Miami Center
07:01PM 26.8578 -80.6989 342° North 180 207 8,500  Level Miami Center
07:02PM 26.9044 -80.7167 341° North 181 208 8,500 -60 Level Miami Center
07:03PM 26.9544 -80.7353 342° North 182 209 8,400  Descending Miami Center
07:04PM 27.0039 -80.7536 342° North 181 208 8,500  Climbing Miami Center
07:05PM 27.0539 -80.7708 343° North 181 208 8,500  Level Miami Center
07:06PM 27.0978 -80.7869 342° North 180 207 8,600  Climbing Miami Center
07:07PM 27.1500 -80.8067 341° North 180 207 8,600  Level Miami Center
07:08PM 27.2000 -80.8267 340° North 181 208 8,600  Level Miami Center
07:09PM 27.2461 -80.8436 342° North 181 208 8,600  Level Miami Center
07:11PM 27.2967 -80.8625 342° North 181 208 8,600  Level Miami Center
07:12PM 27.3456 -80.8811 341° North 181 208 8,600 -60 Level Miami Center
07:13PM 27.3961 -80.9000 342° North 181 208 8,500 -60 Descending Miami Center
07:14PM 27.4428 -80.9167 342° North 181 208 8,500  Level Miami Center
07:15PM 27.4933 -80.9350 342° North 181 208 8,500  Level Miami Center
07:16PM 27.5439 -80.9531 342° North 182 209 8,500  Level Miami Center
07:17PM 27.5903 -80.9708 341° North 182 209 8,500  Level Miami Center
07:18PM 27.6397 -80.9883 343° North 181 208 8,500  Level Miami Center
07:19PM 27.6897 -81.0075 341° North 181 208 8,500  Level Miami Center
07:20PM 27.7356 -81.0239 342° North 181 208 8,600  Climbing Miami Center
07:21PM 27.7858 -81.0425 342° North 180 207 8,600 -60 Level Miami Center
07:22PM 27.8358 -81.0606 342° North 181 208 8,500 -120 Descending Miami Center
07:23PM 27.8844 -81.0789 342° North 180 207 8,400  Descending Miami Center
07:24PM 27.9300 -81.0950 343° North 179 206 8,500  Climbing Miami Center
07:25PM 27.9786 -81.1103 344° North 183 211 8,400 -180 Descending Miami Center
07:26PM 28.0311 -81.1150 355° North 183 211 8,200 -420 Descending Miami Center
07:27PM 28.0861 -81.1092 North 196 226 7,600 -720 Descending Miami Center
07:28PM 28.1414 -81.1092 360° North 198 228 6,800 -960 Descending Miami Center
07:29PM 28.1978 -81.1100 359° North 199 229 5,700 -960 Descending Miami Center
07:30PM 28.2558 -81.1122 358° North 204 235 4,900 -960 Descending Miami Center
07:31PM 28.3214 -81.1175 356° North 202 232 3,800 -960 Descending Miami Center
07:32PM 28.3778 -81.1247 354° North 203 234 3,000 -780 Descending Miami Center
07:33PM 28.4167 -81.1333 349° North 199 229 2,600 -720 Descending Orlando TRACON
07:33PM 28.4500 -81.1333 360° North 193 222 2,000 -660 Descending Orlando TRACON
07:34PM 28.5167 -81.1333 360° North 185 213 1,500 -300 Descending Orlando TRACON
07:35PM 28.5500 -81.1667 319° Northwest 151 174 1,500 -60 Level Orlando TRACON
07:37PM 28.5667 -81.2000 300° West 133 153 1,400 -60 Descending Orlando TRACON
07:37PM 28.5833 -81.2333 300° West 110 127 1,400 -120 Level Orlando TRACON
07:38PM 28.5667 -81.2667 240° Southwest 116 133 1,200 -480 Descending Orlando TRACON
07:39PM 28.5500 -81.3000 240° Southwest 124 143 500 -720 Descending Orlando TRACON